McGregor, IA (52157)

6:22 PM CDT on April 25, 2017 (GMT -0500)
Prairie du Chien | | Change Station

Elev 681 ft 43.04 °N, 91.14 °W | Updated 3 seconds ago

Overcast
Overcast
73.8 °F
Feels Like 75 °F
N
0.1
Wind Variable Wind from ENE
Gusts 3.1 mph

Today
High -- | Low -- °F
--% Chance of Precip.
Yesterday
High -- | Low -- °F
Precip. -- in
Pressure 29.48 in
Visibility 10.0 miles
Clouds Overcast 10000 ft
Heat Index 75 °F
Dew Point 30 °F
Humidity 20%
Rainfall 0.04 in
Snow Depth Not available.
6:06 AM 7:59 PM
Waning Crescent, 0% visible
METAR KPDC 252315Z AUTO 11006KT 10SM OVC100 22/05 A2948 RMK AO2 T02220045
Pressure 29.48 in
Visibility 10.0 miles
Clouds Overcast 10000 ft
Heat Index 75 °F
Dew Point 30 °F
Humidity 20%
Rainfall 0.04 in
Snow Depth Not available.
6:06 AM 7:59 PM
Waning Crescent, 0% visible
METAR KPDC 252315Z AUTO 11006KT 10SM OVC100 22/05 A2948 RMK AO2 T02220045

Get Severe Weather Alerts

Thanks for signing up!

Be on the lookout for a verification email in your inbox.

You'll start receiving the daily forecast at 8 AM.

×

10-Day Weather Forecast

Almanac

Astronomy

Apr. 25, 2017 Rise Set
Actual Time
Civil Twilight
Nautical Twilight
Astronomical Twilight
Moon
Length of Visible Light
Length of Day
Tomorrow will be .
, % of the Moon is Illuminated

Today's Extremes

State Highs State Lows

Community

WunderPhotos

WunderBlog® & News

Nearby

Air Quality

  Air Quality AQ Index Pollutant
Not available.

Snow Depth

Station Depth Elevation

Earthquake Activity

City Distance Mag. Time & Date
Minimum magnitude displayed is 2.5.

Coastal Water Temperatures

Place Temperature

Stations

Nearby Weather Stations

Station Location Temp. Windchill Dew Point Humidity Wind Precip. Elev Updated Type
                   

Watches & Warnings

There are currently no watches in effect.